Time;durP1;ratioP1;P1;durP2;ratioP2;P2;SDS_P1;SDS_P2;PMS_P1;PMS_P2;Temp;Humidity;BMP_temperature;BMP_pressure;BME280_temperature;BME280_humidity;BME280_pressure;Samples;Min_cycle;Max_cycle;Signal;HPM_P1;HPM_P2
2020/12/12 00:00:48;;;;;;;6.63;4.73;;;5.70;52.10;;;;;;5035562;28;36054;-79
2020/12/12 00:03:15;;;;;;;6.00;4.70;;;5.70;52.20;;;;;;5037224;28;39989;-80
2020/12/12 00:05:42;;;;;;;7.60;5.70;;;5.70;52.10;;;;;;5032583;28;39934;-80
2020/12/12 00:08:10;;;;;;;6.03;4.33;;;5.70;51.30;;;;;;5032422;28;38856;-80
2020/12/12 00:10:37;;;;;;;6.60;5.30;;;5.70;51.50;;;;;;5032127;28;37278;-79
2020/12/12 00:13:07;;;;;;;6.93;5.13;;;5.60;51.40;;;;;;5031800;28;39946;-78
2020/12/12 00:15:35;;;;;;;8.77;5.50;;;5.60;51.50;;;;;;5031552;28;39559;-79
2020/12/12 00:18:02;;;;;;;7.07;4.37;;;5.70;51.60;;;;;;5030663;28;38650;-79
2020/12/12 00:20:30;;;;;;;7.70;5.20;;;5.70;51.40;;;;;;5029945;28;37078;-79
2020/12/12 00:22:57;;;;;;;6.80;5.17;;;5.70;51.10;;;;;;5031786;28;39645;-80
2020/12/12 00:25:25;;;;;;;6.80;4.67;;;5.70;51.30;;;;;;5013882;28;37581;-79
2020/12/12 00:27:52;;;;;;;5.77;4.50;;;5.80;51.30;;;;;;5031278;28;38771;-80
2020/12/12 00:30:19;;;;;;;7.37;5.03;;;5.80;51.90;;;;;;5031669;28;37317;-80
2020/12/12 00:32:46;;;;;;;7.53;5.30;;;5.80;52.10;;;;;;5031418;28;39379;-79
2020/12/12 00:35:13;;;;;;;8.63;5.87;;;5.70;52.30;;;;;;5030358;28;38816;-79
2020/12/12 00:37:40;;;;;;;12.37;5.63;;;5.60;52.30;;;;;;5031793;28;38034;-79
2020/12/12 00:40:07;;;;;;;7.90;4.83;;;5.60;52.60;;;;;;5030724;28;37417;-80
2020/12/12 00:42:35;;;;;;;7.30;5.10;;;5.60;53.00;;;;;;5031534;28;39531;-80
2020/12/12 00:45:03;;;;;;;8.93;5.13;;;5.60;53.10;;;;;;5050057;28;38042;-80
2020/12/12 00:47:33;;;;;;;9.40;5.43;;;5.50;53.30;;;;;;5032364;28;36814;-80
2020/12/12 00:50:00;;;;;;;6.30;4.97;;;5.50;53.50;;;;;;5064751;28;35951;-80
2020/12/12 00:52:27;;;;;;;7.63;4.90;;;5.60;53.50;;;;;;5034820;28;39930;-79
2020/12/12 00:54:54;;;;;;;7.30;5.40;;;5.60;53.10;;;;;;5034443;28;39929;-80
2020/12/12 00:57:21;;;;;;;7.30;5.30;;;5.60;53.30;;;;;;5049581;28;36787;-81
2020/12/12 00:59:49;;;;;;;6.97;4.90;;;5.60;53.10;;;;;;5033928;28;37318;-80
2020/12/12 01:02:16;;;;;;;8.47;5.13;;;5.60;52.60;;;;;;5034613;28;40383;-80
2020/12/12 01:04:43;;;;;;;7.43;4.40;;;5.60;53.00;;;;;;5035034;28;40356;-79
2020/12/12 01:07:10;;;;;;;7.07;4.97;;;5.60;52.80;;;;;;5034489;28;37864;-79
2020/12/12 01:09:37;;;;;;;6.43;4.40;;;5.60;52.70;;;;;;5048983;28;35880;-79
2020/12/12 01:12:06;;;;;;;6.10;4.40;;;5.60;52.50;;;;;;5034403;28;40143;-79
2020/12/12 01:14:36;;;;;;;6.50;4.50;;;5.60;52.90;;;;;;5035574;28;38989;-79
2020/12/12 01:17:04;;;;;;;5.40;3.90;;;5.60;52.80;;;;;;5035516;28;38734;-80
2020/12/12 01:19:31;;;;;;;6.83;4.90;;;5.70;52.80;;;;;;5049828;28;36531;-79
2020/12/12 01:21:58;;;;;;;5.90;4.30;;;5.70;52.70;;;;;;5033935;28;39574;-79
2020/12/12 01:24:25;;;;;;;5.00;4.00;;;5.70;53.50;;;;;;5033750;28;37604;-79
2020/12/12 01:26:52;;;;;;;4.53;3.80;;;5.70;52.70;;;;;;5031417;28;38459;-79
2020/12/12 01:29:19;;;;;;;5.47;4.20;;;5.70;52.50;;;;;;5035173;28;37345;-79
2020/12/12 01:31:48;;;;;;;5.90;3.70;;;5.70;52.40;;;;;;5032796;28;38332;-79
2020/12/12 01:34:16;;;;;;;5.97;3.73;;;5.60;52.10;;;;;;5034587;28;39450;-79
2020/12/12 01:36:43;;;;;;;5.97;3.67;;;5.60;52.20;;;;;;5033475;28;36888;-79
2020/12/12 01:39:10;;;;;;;5.57;3.60;;;5.60;52.00;;;;;;5033033;28;36089;-79
2020/12/12 01:41:37;;;;;;;5.83;4.40;;;5.60;52.30;;;;;;5031941;28;38477;-79
2020/12/12 01:44:04;;;;;;;7.17;4.50;;;5.50;52.20;;;;;;5033715;28;38978;-80
2020/12/12 01:46:32;;;;;;;5.50;4.27;;;5.50;52.30;;;;;;5032387;28;36861;-80
2020/12/12 01:49:00;;;;;;;6.57;4.20;;;5.40;52.30;;;;;;5034149;28;37887;-80
2020/12/12 01:51:28;;;;;;;4.13;3.47;;;5.40;52.40;;;;;;5033408;28;40369;-80
2020/12/12 01:53:58;;;;;;;5.10;3.87;;;5.40;52.40;;;;;;5034073;28;39342;-81
2020/12/12 01:56:25;;;;;;;5.40;4.07;;;5.40;52.50;;;;;;5044747;28;37281;-81
2020/12/12 01:58:53;;;;;;;6.67;4.07;;;5.40;52.60;;;;;;5034495;28;36149;-79
2020/12/12 02:01:23;;;;;;;5.57;4.57;;;5.30;52.70;;;;;;5029791;28;39530;-78
2020/12/12 02:03:51;;;;;;;6.87;4.20;;;5.20;52.70;;;;;;5033043;28;38516;-79
2020/12/12 02:06:19;;;;;;;6.10;4.17;;;5.20;53.10;;;;;;5032301;28;38798;-79
2020/12/12 02:08:51;;;;;;;6.90;4.80;;;5.10;53.40;;;;;;5027460;28;36359;-79
2020/12/12 02:11:20;;;;;;;6.60;4.60;;;5.00;53.60;;;;;;5032759;28;40542;-79
2020/12/12 02:13:48;;;;;;;6.30;4.40;;;5.00;53.70;;;;;;5033226;28;39111;-79
2020/12/12 02:16:15;;;;;;;9.67;4.50;;;5.00;54.10;;;;;;5046694;28;37243;-80
2020/12/12 02:18:42;;;;;;;9.03;5.17;;;5.00;54.10;;;;;;5032626;28;37559;-79
2020/12/12 02:21:09;;;;;;;6.60;4.60;;;5.10;54.30;;;;;;5046854;28;39262;-78
2020/12/12 02:23:37;;;;;;;5.40;4.17;;;5.20;54.30;;;;;;5032799;28;38856;-78
2020/12/12 02:26:04;;;;;;;6.87;4.43;;;5.30;54.00;;;;;;5046598;28;36750;-78
2020/12/12 02:28:36;;;;;;;6.70;4.40;;;5.30;53.80;;;;;;5025594;28;37687;-78
2020/12/12 02:31:03;;;;;;;6.60;4.67;;;5.40;53.90;;;;;;5032371;28;38666;-78
2020/12/12 02:33:30;;;;;;;5.70;4.17;;;5.50;53.60;;;;;;5032773;28;39221;-78
2020/12/12 02:35:57;;;;;;;8.80;4.93;;;5.50;53.60;;;;;;5032576;28;38223;-78
2020/12/12 02:38:25;;;;;;;7.37;5.30;;;5.50;53.60;;;;;;5033073;28;37235;-78
2020/12/12 02:40:53;;;;;;;7.13;5.07;;;5.60;53.50;;;;;;5033421;28;39283;-77
2020/12/12 02:43:19;;;;;;;5.37;4.40;;;5.50;53.30;;;;;;5032718;28;39225;-77
2020/12/12 02:45:47;;;;;;;6.70;5.07;;;5.50;53.40;;;;;;5032450;28;39029;-77
2020/12/12 02:48:14;;;;;;;6.57;4.90;;;5.50;53.60;;;;;;5032768;28;37382;-77
2020/12/12 02:50:44;;;;;;;7.17;4.40;;;5.40;53.40;;;;;;5031613;28;38674;-77
2020/12/12 02:53:11;;;;;;;6.03;4.73;;;5.40;53.60;;;;;;5047459;28;37677;-79
2020/12/12 02:55:38;;;;;;;6.63;5.27;;;5.40;53.70;;;;;;5032505;28;37970;-78
2020/12/12 02:58:05;;;;;;;6.80;4.63;;;5.40;53.60;;;;;;5032396;28;36734;-78
2020/12/12 03:00:33;;;;;;;6.17;4.07;;;5.40;53.70;;;;;;5033762;28;40096;-78
2020/12/12 03:03:01;;;;;;;6.83;4.67;;;5.40;53.50;;;;;;5044121;28;38692;-79
2020/12/12 03:05:28;;;;;;;6.20;4.93;;;5.40;53.50;;;;;;5030306;28;37827;-79
2020/12/12 03:07:55;;;;;;;6.80;5.30;;;5.40;53.50;;;;;;5031364;28;36263;-78
2020/12/12 03:10:22;;;;;;;7.97;4.70;;;5.50;53.50;;;;;;5031983;28;39444;-78
2020/12/12 03:12:49;;;;;;;6.17;4.53;;;5.40;53.60;;;;;;5031390;28;38734;-78
2020/12/12 03:15:17;;;;;;;6.70;5.10;;;5.50;53.70;;;;;;5033200;28;36173;-78
2020/12/12 03:17:44;;;;;;;9.30;5.80;;;5.50;53.50;;;;;;5036241;28;36390;-78
2020/12/12 03:20:11;;;;;;;7.40;5.40;;;5.40;53.50;;;;;;5047631;28;38456;-79
2020/12/12 03:22:37;;;;;;;7.40;5.17;;;5.40;53.50;;;;;;5032549;28;39046;-80
2020/12/12 03:25:04;;;;;;;13.20;7.10;;;5.40;53.50;;;;;;5032232;28;38204;-78
2020/12/12 03:27:31;;;;;;;9.77;6.10;;;5.40;53.50;;;;;;5031781;28;37023;-79
2020/12/12 03:30:00;;;;;;;7.90;5.60;;;5.40;53.60;;;;;;5038521;28;38817;-79
2020/12/12 03:32:29;;;;;;;8.93;6.10;;;5.40;53.40;;;;;;5031892;28;39080;-79
2020/12/12 03:34:55;;;;;;;9.47;6.27;;;5.40;53.50;;;;;;5031631;28;37832;-79
2020/12/12 03:37:22;;;;;;;8.20;5.70;;;5.30;53.60;;;;;;5031585;28;37657;-78
2020/12/12 03:39:49;;;;;;;7.57;5.97;;;5.40;53.60;;;;;;5031613;28;41169;-79
2020/12/12 03:42:16;;;;;;;9.67;6.70;;;5.40;53.70;;;;;;5041313;28;37846;-78
2020/12/12 03:44:43;;;;;;;7.80;5.80;;;5.30;53.90;;;;;;5031706;28;38545;-79
2020/12/12 03:47:10;;;;;;;9.53;6.57;;;5.30;53.80;;;;;;5020555;28;37558;-78
2020/12/12 03:49:38;;;;;;;8.07;5.57;;;5.40;54.00;;;;;;5031495;28;39175;-78
2020/12/12 03:52:05;;;;;;;7.87;5.73;;;5.40;53.90;;;;;;5032002;28;38949;-78
2020/12/12 03:54:35;;;;;;;9.53;6.57;;;5.50;54.00;;;;;;5047148;28;37177;-77
2020/12/12 03:57:02;;;;;;;8.37;5.33;;;5.50;53.90;;;;;;5030492;28;36776;-77
2020/12/12 03:59:29;;;;;;;7.73;5.13;;;5.40;54.10;;;;;;5031190;28;40109;-78
2020/12/12 04:01:56;;;;;;;7.97;5.23;;;5.50;54.10;;;;;;5031558;28;38643;-78
2020/12/12 04:04:23;;;;;;;7.50;5.57;;;5.50;54.00;;;;;;5031697;28;38237;-78
2020/12/12 04:06:51;;;;;;;7.33;5.57;;;5.50;54.10;;;;;;5032106;28;37099;-78
2020/12/12 04:09:18;;;;;;;7.03;4.73;;;5.40;54.20;;;;;;5030985;28;39779;-78
2020/12/12 04:11:45;;;;;;;7.37;5.20;;;5.40;54.50;;;;;;5031223;28;38935;-78
2020/12/12 04:14:12;;;;;;;7.17;4.90;;;5.50;54.50;;;;;;5030475;28;37889;-78
2020/12/12 04:16:38;;;;;;;7.20;4.70;;;5.40;54.60;;;;;;5031372;28;36833;-78
2020/12/12 04:19:05;;;;;;;6.47;4.97;;;5.50;55.00;;;;;;5029724;28;39648;-79
2020/12/12 04:21:32;;;;;;;6.87;4.67;;;5.50;54.70;;;;;;5031320;28;38868;-80
2020/12/12 04:24:00;;;;;;;7.43;5.40;;;5.50;54.60;;;;;;5029625;28;38065;-79
2020/12/12 04:26:27;;;;;;;8.13;5.17;;;5.50;54.60;;;;;;5063802;28;36166;-80
2020/12/12 04:28:54;;;;;;;6.80;5.00;;;5.50;54.80;;;;;;5027337;28;39722;-79
2020/12/12 04:31:21;;;;;;;7.13;4.60;;;5.50;54.80;;;;;;5032020;28;38738;-79
2020/12/12 04:33:48;;;;;;;9.97;6.83;;;5.50;54.80;;;;;;5032097;28;38980;-79
2020/12/12 04:36:15;;;;;;;9.67;6.63;;;5.50;54.90;;;;;;5038241;28;36013;-79
2020/12/12 04:38:42;;;;;;;10.83;7.77;;;5.50;54.80;;;;;;5031896;28;39734;-80
2020/12/12 04:41:11;;;;;;;10.60;8.10;;;5.50;55.00;;;;;;5030062;28;37916;-80
2020/12/12 04:43:43;;;;;;;14.50;9.93;;;5.40;55.30;;;;;;5030751;28;38981;-80
2020/12/12 04:46:13;;;;;;;16.03;10.93;;;5.40;55.60;;;;;;5030056;28;36194;-79
2020/12/12 04:48:40;;;;;;;16.90;10.17;;;5.40;55.80;;;;;;5031789;28;40369;-80
2020/12/12 04:51:10;;;;;;;13.03;8.97;;;5.30;56.20;;;;;;5019678;28;39110;-79
2020/12/12 04:53:37;;;;;;;12.27;8.87;;;5.20;56.50;;;;;;5031948;28;38770;-80
2020/12/12 04:56:05;;;;;;;12.20;9.10;;;5.20;56.60;;;;;;5031555;28;37164;-79
2020/12/12 04:58:38;;;;;;;13.60;9.37;;;5.20;56.80;;;;;;5033497;28;40409;-80
2020/12/12 05:01:05;;;;;;;12.77;8.23;;;5.10;57.00;;;;;;5058641;28;38793;-80
2020/12/12 05:03:34;;;;;;;10.87;8.17;;;5.20;57.00;;;;;;5012330;28;37952;-80
2020/12/12 05:06:01;;;;;;;12.30;8.90;;;5.20;57.10;;;;;;5032021;28;36838;-79
2020/12/12 05:08:28;;;;;;;12.70;9.27;;;5.10;57.30;;;;;;5030213;28;41110;-80
2020/12/12 05:10:57;;;;;;;14.27;8.73;;;5.10;57.40;;;;;;5022686;28;38787;-80
2020/12/12 05:13:28;;;;;;;14.23;8.83;;;5.10;57.40;;;;;;5031528;28;38753;-80
2020/12/12 05:15:57;;;;;;;11.90;8.80;;;5.10;57.50;;;;;;5031737;28;35868;-80
2020/12/12 05:18:24;;;;;;;13.03;8.50;;;5.10;57.60;;;;;;5031119;28;38593;-80
2020/12/12 05:20:54;;;;;;;12.00;7.80;;;5.10;57.90;;;;;;5049376;28;38483;-80
2020/12/12 05:23:24;;;;;;;14.33;9.20;;;5.00;57.80;;;;;;5023407;28;37791;-79
2020/12/12 05:25:53;;;;;;;14.27;9.50;;;5.00;58.00;;;;;;5031908;28;37830;-79
2020/12/12 05:28:23;;;;;;;13.30;8.77;;;5.00;58.10;;;;;;5031335;28;39838;-79
2020/12/12 05:30:52;;;;;;;13.07;10.23;;;4.90;58.10;;;;;;5038862;28;39656;-79
2020/12/12 05:33:23;;;;;;;12.13;8.73;;;4.90;58.20;;;;;;5035670;28;37994;-79
2020/12/12 05:35:51;;;;;;;12.67;9.20;;;4.90;58.30;;;;;;5068319;28;37572;-79
2020/12/12 05:38:18;;;;;;;15.73;9.13;;;4.80;58.40;;;;;;5034202;28;38671;-79
2020/12/12 05:40:50;;;;;;;14.10;9.50;;;4.80;58.40;;;;;;5033089;28;39030;-79
2020/12/12 05:43:17;;;;;;;15.00;9.53;;;4.80;58.40;;;;;;5030452;28;36894;-80
2020/12/12 05:45:46;;;;;;;16.00;10.90;;;4.80;58.40;;;;;;5034117;28;37126;-79
2020/12/12 05:48:13;;;;;;;12.63;8.83;;;4.80;58.40;;;;;;5031406;28;38644;-79
2020/12/12 05:50:42;;;;;;;15.63;9.90;;;4.80;58.40;;;;;;5034211;28;39295;-80
2020/12/12 05:53:10;;;;;;;12.20;9.20;;;4.70;58.40;;;;;;5033311;28;38075;-80
2020/12/12 05:55:39;;;;;;;13.40;9.43;;;4.70;58.60;;;;;;5034477;28;38041;-79
2020/12/12 05:58:08;;;;;;;14.27;9.10;;;4.70;58.70;;;;;;5033095;28;39565;-80
2020/12/12 06:00:35;;;;;;;12.80;8.53;;;4.70;58.80;;;;;;5046923;28;39139;-80
2020/12/12 06:03:05;;;;;;;12.90;9.53;;;4.70;58.90;;;;;;5034590;28;37954;-80
2020/12/12 06:05:34;;;;;;;15.03;9.50;;;4.70;59.00;;;;;;5034334;28;36898;-81
2020/12/12 06:08:03;;;;;;;12.23;8.77;;;4.70;59.20;;;;;;5034916;28;39636;-80
2020/12/12 06:10:32;;;;;;;15.67;10.00;;;4.60;59.30;;;;;;5033125;28;39318;-80
2020/12/12 06:13:04;;;;;;;14.30;10.30;;;4.70;59.40;;;;;;5031387;28;38994;-80
2020/12/12 06:15:36;;;;;;;17.73;10.83;;;4.70;59.40;;;;;;5034118;28;38328;-80
2020/12/12 06:18:36;;;;;;;14.70;9.90;;;4.70;59.50;;;;;;5034113;28;40340;-81
2020/12/12 06:21:08;;;;;;;14.67;9.50;;;4.70;59.60;;;;;;5026807;28;38378;-81
2020/12/12 06:23:39;;;;;;;17.13;10.03;;;4.70;59.70;;;;;;5032383;28;38089;-80
2020/12/12 06:26:08;;;;;;;14.27;10.23;;;4.80;59.90;;;;;;5032035;28;37211;-79
2020/12/12 06:28:41;;;;;;;18.00;11.37;;;4.80;59.70;;;;;;5036251;28;40645;-80
2020/12/12 06:31:10;;;;;;;15.03;10.00;;;4.80;59.80;;;;;;5057990;28;38192;-80
2020/12/12 06:33:51;;;;;;;8.37;6.80;;;4.90;59.90;;;;;;5031918;28;38807;-80
2020/12/12 06:36:26;;;;;;;15.03;10.60;;;4.90;59.90;;;;;;5033473;28;37999;-80
2020/12/12 06:39:22;;;;;;;11.87;8.70;;;4.90;59.80;;;;;;5045323;28;39345;-80
2020/12/12 06:41:52;;;;;;;14.47;10.10;;;5.00;60.00;;;;;;5031100;28;39886;-80
2020/12/12 06:44:36;;;;;;;10.33;7.50;;;5.00;60.00;;;;;;5033861;28;38339;-79
2020/12/12 06:47:04;;;;;;;8.77;6.80;;;5.00;60.00;;;;;;5033434;28;38150;-79
2020/12/12 06:49:32;;;;;;;6.97;5.80;;;5.10;59.90;;;;;;5031831;28;38987;-79
2020/12/12 06:51:59;;;;;;;4.80;2.97;;;5.10;59.80;;;;;;5033438;28;39696;-79
2020/12/12 06:54:27;;;;;;;3.57;2.60;;;5.20;59.30;;;;;;5033747;28;37919;-79
2020/12/12 06:56:56;;;;;;;2.57;2.00;;;5.20;59.40;;;;;;5031750;28;36969;-80
2020/12/12 06:59:31;;;;;;;2.10;1.73;;;5.30;59.30;;;;;;5041636;28;39656;-81
2020/12/12 07:01:59;;;;;;;2.17;1.80;;;5.40;58.90;;;;;;5034450;28;39297;-80
2020/12/12 07:04:29;;;;;;;2.43;1.83;;;5.40;58.60;;;;;;5033646;28;37976;-80
2020/12/12 07:07:07;;;;;;;2.90;2.30;;;5.50;58.70;;;;;;5033127;28;36209;-81
2020/12/12 07:09:44;;;;;;;4.07;3.13;;;5.50;58.60;;;;;;5031962;28;38734;-79
2020/12/12 07:12:11;;;;;;;10.77;7.23;;;5.60;58.70;;;;;;5032054;28;38106;-80
2020/12/12 07:14:38;;;;;;;15.43;10.33;;;5.60;58.60;;;;;;5033796;28;37124;-81
2020/12/12 07:17:06;;;;;;;12.80;10.43;;;5.60;58.60;;;;;;5029773;28;37497;-80
2020/12/12 07:19:35;;;;;;;15.30;10.70;;;5.60;58.60;;;;;;5033130;28;41069;-80
2020/12/12 07:22:05;;;;;;;18.77;11.10;;;5.50;58.60;;;;;;5030264;28;39988;-79
2020/12/12 07:24:35;;;;;;;19.33;11.40;;;5.50;58.70;;;;;;5024660;28;37928;-78
2020/12/12 07:27:04;;;;;;;19.40;10.93;;;5.50;58.90;;;;;;5031662;28;37404;-80
2020/12/12 07:29:31;;;;;;;15.37;10.73;;;5.40;58.80;;;;;;5025137;28;39867;-80
2020/12/12 07:31:59;;;;;;;15.27;10.50;;;5.40;58.90;;;;;;5031688;28;38975;-81
2020/12/12 07:34:32;;;;;;;20.77;11.20;;;5.40;58.90;;;;;;5027330;28;36780;-78
2020/12/12 07:37:00;;;;;;;16.77;10.87;;;5.40;58.90;;;;;;5026436;28;36789;-78
2020/12/12 07:39:29;;;;;;;17.97;11.60;;;5.50;59.00;;;;;;5032095;28;40321;-79
2020/12/12 07:41:58;;;;;;;18.77;11.83;;;5.40;58.90;;;;;;5032497;28;39071;-79
2020/12/12 07:44:26;;;;;;;16.10;10.33;;;5.50;59.00;;;;;;5031737;28;38568;-79
2020/12/12 07:46:57;;;;;;;15.83;10.70;;;5.60;59.10;;;;;;5031574;28;38594;-79
2020/12/12 07:49:24;;;;;;;17.00;10.40;;;5.60;59.10;;;;;;5028159;28;40680;-79
2020/12/12 07:52:06;;;;;;;15.23;10.30;;;5.60;59.10;;;;;;5029608;28;37348;-79
2020/12/12 07:54:36;;;;;;;15.37;10.43;;;5.70;59.20;;;;;;5028321;28;37716;-79
2020/12/12 07:57:06;;;;;;;13.67;9.77;;;5.70;59.20;;;;;;5031815;28;37434;-80
2020/12/12 07:59:33;;;;;;;13.60;9.57;;;5.80;59.20;;;;;;5030231;28;39713;-80
2020/12/12 08:02:02;;;;;;;11.90;8.63;;;5.90;59.00;;;;;;5030998;28;39299;-80
2020/12/12 08:04:29;;;;;;;13.93;9.20;;;6.00;58.60;;;;;;5031188;28;37925;-80
2020/12/12 08:07:02;;;;;;;34.90;12.47;;;6.10;58.40;;;;;;5024179;28;37075;-80
2020/12/12 08:09:29;;;;;;;23.47;10.20;;;6.20;58.30;;;;;;5030101;28;39534;-79
2020/12/12 08:11:57;;;;;;;35.00;12.03;;;6.20;58.00;;;;;;5027609;28;38824;-80
2020/12/12 08:14:31;;;;;;;24.23;10.57;;;6.30;58.00;;;;;;5046219;28;37048;-80
2020/12/12 08:16:59;;;;;;;23.80;12.67;;;6.40;57.80;;;;;;5028528;28;37200;-79
2020/12/12 08:19:28;;;;;;;17.17;11.10;;;6.40;57.70;;;;;;5028207;28;39381;-80
2020/12/12 08:22:10;;;;;;;19.33;11.30;;;6.40;57.50;;;;;;5038205;28;38002;-80
2020/12/12 08:24:38;;;;;;;12.50;9.00;;;6.40;57.30;;;;;;5025309;28;38529;-81
2020/12/12 08:27:10;;;;;;;17.80;10.87;;;6.50;57.30;;;;;;5027905;28;37158;-79
2020/12/12 08:29:43;;;;;;;19.23;10.50;;;6.50;57.10;;;;;;5022548;28;38500;-78
2020/12/12 08:32:28;;;;;;;13.10;9.37;;;6.50;57.10;;;;;;5029507;28;39535;-79
2020/12/12 08:35:14;;;;;;;18.90;10.70;;;6.50;57.00;;;;;;5027765;28;38046;-79
2020/12/12 08:37:58;;;;;;;12.00;8.37;;;6.50;56.90;;;;;;5023681;28;37940;-79
2020/12/12 08:40:27;;;;;;;20.30;9.50;;;6.60;57.00;;;;;;5028413;28;40568;-79
2020/12/12 08:42:59;;;;;;;17.00;9.63;;;6.60;56.80;;;;;;5023144;28;39014;-80
2020/12/12 08:45:28;;;;;;;16.63;10.63;;;6.50;57.10;;;;;;5027033;28;38005;-80
2020/12/12 08:48:07;;;;;;;20.40;11.10;;;6.50;57.60;;;;;;5022110;28;38404;-78
2020/12/12 08:50:48;;;;;;;24.30;10.30;;;6.60;57.80;;;;;;5042338;28;38636;-78
2020/12/12 08:53:37;;;;;;;31.13;11.80;;;6.70;57.60;;;;;;5027755;28;39259;-79
2020/12/12 08:56:12;;;;;;;20.20;11.20;;;6.90;57.50;;;;;;5022856;28;38994;-78
2020/12/12 08:58:47;;;;;;;23.40;11.60;;;7.00;57.30;;;;;;5030075;28;37566;-78
2020/12/12 09:01:24;;;;;;;19.83;11.40;;;7.10;56.90;;;;;;5041346;28;39368;-78
2020/12/12 09:04:02;;;;;;;18.33;11.07;;;7.20;56.80;;;;;;5024049;28;38674;-79
2020/12/12 09:06:33;;;;;;;17.53;9.00;;;7.40;56.70;;;;;;5028169;28;37192;-78
2020/12/12 09:09:11;;;;;;;12.13;8.30;;;7.50;56.50;;;;;;5030750;28;37052;-78
2020/12/12 09:11:39;;;;;;;17.60;11.50;;;7.60;56.30;;;;;;5030074;28;40824;-78
2020/12/12 09:14:09;;;;;;;17.83;8.63;;;7.70;56.10;;;;;;5032639;28;39638;-78
2020/12/12 09:16:46;;;;;;;8.83;7.40;;;7.90;55.80;;;;;;5034218;28;38917;-78
2020/12/12 09:19:13;;;;;;;13.07;8.60;;;8.10;55.50;;;;;;5042069;28;35426;-78
2020/12/12 09:21:40;;;;;;;16.83;8.07;;;8.20;55.20;;;;;;5031939;28;39791;-78
2020/12/12 09:24:07;;;;;;;16.73;6.57;;;8.40;54.80;;;;;;5025700;28;39542;-79
2020/12/12 09:26:37;;;;;;;9.40;6.53;;;8.50;54.00;;;;;;5023247;28;38869;-79
2020/12/12 09:29:05;;;;;;;12.87;6.93;;;8.50;53.80;;;;;;5035959;28;37215;-78
2020/12/12 09:31:32;;;;;;;17.43;7.67;;;8.60;54.30;;;;;;5025476;28;38488;-79
2020/12/12 09:34:00;;;;;;;10.77;7.17;;;8.70;55.00;;;;;;5034163;28;39107;-78
2020/12/12 09:36:27;;;;;;;11.00;7.00;;;8.80;55.20;;;;;;5028726;28;38107;-78
2020/12/12 09:38:55;;;;;;;11.80;7.57;;;8.90;55.20;;;;;;5035594;28;37447;-79
2020/12/12 09:41:22;;;;;;;14.00;7.87;;;8.90;55.10;;;;;;5033029;28;39896;-79
2020/12/12 09:43:49;;;;;;;7.90;7.00;;;9.00;55.20;;;;;;5040668;28;36774;-76
2020/12/12 09:46:18;;;;;;;9.47;6.80;;;9.10;54.90;;;;;;5025039;28;38248;-79
2020/12/12 09:48:47;;;;;;;8.20;5.57;;;9.10;54.80;;;;;;5028884;28;37485;-75
2020/12/12 09:51:16;;;;;;;7.93;5.30;;;9.10;54.40;;;;;;5027902;28;38337;-77
2020/12/12 09:53:43;;;;;;;6.73;5.47;;;9.10;53.90;;;;;;5043030;28;37758;-76
2020/12/12 09:56:12;;;;;;;14.90;6.20;;;9.00;53.50;;;;;;5024571;28;37650;-76
2020/12/12 09:58:39;;;;;;;10.23;6.27;;;8.90;53.40;;;;;;5029258;28;37875;-76
2020/12/12 10:01:06;;;;;;;10.97;5.80;;;8.80;53.90;;;;;;5032625;28;39450;-76
2020/12/12 10:03:33;;;;;;;11.50;5.90;;;8.70;53.80;;;;;;5024044;28;38268;-78
2020/12/12 10:06:01;;;;;;;13.97;6.40;;;8.70;54.10;;;;;;5027441;28;36793;-79
2020/12/12 10:08:29;;;;;;;10.90;5.30;;;8.70;54.30;;;;;;5029769;28;38292;-78
2020/12/12 10:10:56;;;;;;;15.27;5.67;;;8.70;54.00;;;;;;5022979;28;39606;-78
2020/12/12 10:13:23;;;;;;;24.03;5.53;;;8.70;54.20;;;;;;5025623;28;39602;-78
2020/12/12 10:15:53;;;;;;;10.47;5.10;;;8.80;54.20;;;;;;5021331;28;38501;-79
2020/12/12 10:18:21;;;;;;;14.40;5.60;;;8.90;54.20;;;;;;5031396;28;36057;-79
2020/12/12 10:20:48;;;;;;;21.93;6.77;;;8.90;54.00;;;;;;5020167;28;39245;-78
2020/12/12 10:23:15;;;;;;;18.53;6.20;;;9.00;54.30;;;;;;5020396;28;39154;-79
2020/12/12 10:25:43;;;;;;;38.27;8.57;;;9.10;54.30;;;;;;5020068;28;38440;-79
2020/12/12 10:28:10;;;;;;;15.07;6.27;;;9.30;54.40;;;;;;5024663;28;37231;-79
2020/12/12 10:30:37;;;;;;;18.50;7.50;;;9.40;54.00;;;;;;5031596;28;39352;-81
2020/12/12 10:33:05;;;;;;;20.03;7.20;;;9.50;53.90;;;;;;5024847;28;39863;-78
2020/12/12 10:35:32;;;;;;;11.57;6.93;;;9.70;53.70;;;;;;5020897;28;38164;-78
2020/12/12 10:38:03;;;;;;;10.50;7.00;;;9.80;53.30;;;;;;5021009;28;36545;-79
2020/12/12 10:40:33;;;;;;;7.40;6.50;;;9.90;52.80;;;;;;5041240;28;38311;-80
2020/12/12 10:43:04;;;;;;;8.80;6.77;;;10.00;51.80;;;;;;5026711;28;37927;-79
2020/12/12 10:45:32;;;;;;;11.03;6.80;;;10.10;50.90;;;;;;5026429;28;37883;-79
2020/12/12 10:48:02;;;;;;;8.47;7.30;;;10.10;50.90;;;;;;5020206;28;36013;-79
2020/12/12 10:50:29;;;;;;;9.80;6.83;;;10.00;50.50;;;;;;5033714;28;38696;-79
2020/12/12 10:52:56;;;;;;;9.10;7.17;;;10.00;50.70;;;;;;5036942;28;38102;-80
2020/12/12 10:55:25;;;;;;;10.50;7.60;;;10.00;51.00;;;;;;5015914;28;37710;-80
2020/12/12 10:57:52;;;;;;;9.20;7.40;;;9.90;52.70;;;;;;5020735;28;37250;-79
2020/12/12 11:00:23;;;;;;;7.90;7.10;;;9.90;53.70;;;;;;5020186;28;40016;-79
2020/12/12 11:02:51;;;;;;;9.63;7.80;;;9.80;54.00;;;;;;5022592;28;39861;-80
2020/12/12 11:05:18;;;;;;;12.23;8.40;;;9.80;54.60;;;;;;5028797;28;38560;-79
2020/12/12 11:07:46;;;;;;;13.93;8.13;;;9.80;55.40;;;;;;5030053;28;37203;-79
2020/12/12 11:10:13;;;;;;;11.00;8.37;;;9.80;55.50;;;;;;5027020;28;38115;-78
2020/12/12 11:12:40;;;;;;;9.80;8.07;;;9.80;55.70;;;;;;5023602;28;38413;-78
2020/12/12 11:15:09;;;;;;;9.90;8.43;;;9.80;55.70;;;;;;5028519;28;36703;-78
2020/12/12 11:17:37;;;;;;;10.00;8.40;;;9.80;55.70;;;;;;5021479;28;37238;-79
2020/12/12 11:20:04;;;;;;;12.07;7.97;;;9.80;55.90;;;;;;5020288;28;40033;-79
2020/12/12 11:22:33;;;;;;;10.23;8.70;;;9.70;56.00;;;;;;5024761;28;39421;-79
2020/12/12 11:25:01;;;;;;;12.40;8.20;;;9.70;56.70;;;;;;5023103;28;39134;-79
2020/12/12 11:27:31;;;;;;;11.00;8.57;;;9.60;56.20;;;;;;5029472;28;37928;-80
2020/12/12 11:29:58;;;;;;;8.67;7.80;;;9.60;56.90;;;;;;5017636;28;40441;-80
2020/12/12 11:32:26;;;;;;;11.03;8.47;;;9.70;56.80;;;;;;5019833;28;38730;-79
2020/12/12 11:35:00;;;;;;;10.00;8.00;;;9.80;56.50;;;;;;5020049;28;38965;-80
2020/12/12 11:37:37;;;;;;;10.03;8.90;;;10.00;54.80;;;;;;5017434;28;39002;-79
2020/12/12 11:40:13;;;;;;;10.23;7.73;;;10.00;54.20;;;;;;5026229;28;39089;-79
2020/12/12 11:43:15;;;;;;;10.80;7.40;;;10.10;53.90;;;;;;5025795;28;39553;-80
2020/12/12 11:46:11;;;;;;;9.33;6.10;;;10.10;54.00;;;;;;5023609;28;37978;-80
2020/12/12 11:48:38;;;;;;;7.57;6.80;;;10.10;53.80;;;;;;5024433;28;37146;-80
2020/12/12 11:51:08;;;;;;;10.77;6.90;;;10.10;53.80;;;;;;5022797;28;39785;-80
2020/12/12 11:53:35;;;;;;;7.40;6.60;;;10.20;54.00;;;;;;5028050;28;39088;-79
2020/12/12 11:56:03;;;;;;;9.17;7.00;;;10.10;54.10;;;;;;5033243;28;38768;-80
2020/12/12 11:58:30;;;;;;;10.20;5.97;;;10.20;53.90;;;;;;5030098;28;37049;-79
2020/12/12 12:00:57;;;;;;;10.93;7.50;;;10.20;53.90;;;;;;5040790;28;39505;-80
2020/12/12 12:03:24;;;;;;;11.23;6.73;;;10.30;54.10;;;;;;5052334;28;37711;-81
2020/12/12 12:05:52;;;;;;;10.33;7.03;;;10.30;54.30;;;;;;5054231;28;39024;-80
2020/12/12 12:08:27;;;;;;;10.00;7.00;;;10.30;54.20;;;;;;5054873;28;37265;-80
2020/12/12 12:11:09;;;;;;;7.50;6.63;;;10.40;54.30;;;;;;5041536;28;38434;-80
2020/12/12 12:13:36;;;;;;;8.37;6.03;;;10.40;53.80;;;;;;5012163;28;40165;-79
2020/12/12 12:16:04;;;;;;;8.53;6.43;;;10.50;53.90;;;;;;5013397;28;38129;-79
2020/12/12 12:18:31;;;;;;;9.80;6.60;;;10.60;53.90;;;;;;5013780;28;38135;-80
2020/12/12 12:20:58;;;;;;;8.83;6.57;;;10.70;54.00;;;;;;5029886;28;39670;-80
2020/12/12 12:23:27;;;;;;;7.30;5.60;;;10.70;53.40;;;;;;5033030;28;39150;-80
2020/12/12 12:25:54;;;;;;;9.53;7.10;;;10.70;53.90;;;;;;5032774;28;37997;-79
2020/12/12 12:28:21;;;;;;;6.20;4.60;;;10.90;53.90;;;;;;5034190;28;38168;-80
2020/12/12 12:30:49;;;;;;;5.20;3.93;;;11.00;54.30;;;;;;5071070;28;39341;-80
2020/12/12 12:33:16;;;;;;;3.87;2.87;;;11.10;54.00;;;;;;5055789;28;37801;-79
2020/12/12 12:35:45;;;;;;;4.63;2.90;;;11.30;53.70;;;;;;5037451;28;38348;-80
2020/12/12 12:38:12;;;;;;;4.77;2.17;;;11.40;53.40;;;;;;5035674;28;37617;-80
2020/12/12 12:40:40;;;;;;;4.37;2.03;;;11.50;53.40;;;;;;5039488;28;39575;-80
2020/12/12 12:43:07;;;;;;;3.60;2.10;;;11.50;53.00;;;;;;5040857;28;38969;-81
2020/12/12 12:45:34;;;;;;;2.03;1.60;;;11.50;52.60;;;;;;5027360;28;38024;-80
2020/12/12 12:48:01;;;;;;;4.23;2.03;;;11.40;53.00;;;;;;5036903;28;37316;-80
2020/12/12 12:50:34;;;;;;;2.30;2.10;;;11.30;53.10;;;;;;5034751;28;38841;-81
2020/12/12 12:53:13;;;;;;;1.83;1.53;;;11.40;53.20;;;;;;5034835;28;37714;-80
2020/12/12 12:55:42;;;;;;;2.90;1.90;;;11.30;52.80;;;;;;5036168;28;38370;-81
2020/12/12 12:58:09;;;;;;;2.83;1.93;;;11.30;53.20;;;;;;5038709;28;37242;-80
2020/12/12 13:00:39;;;;;;;1.73;1.40;;;11.30;53.60;;;;;;5057882;28;40280;-80